KJRB/JRB METAR and TAF weather

Enter ICAO airport designator
Station Type Date Time Source
KJRB METAR 2020/07/06 01:56 UTC NOAA

KJRB 060156Z AUTO 00000KT 10SM CLR 27/21 A2995 RMK AO2 SLP142 T02720206


Station Type Date Time Source
KJRB Decoded METAR 2020/07/06 01:56 UTC NOAA

Station name not available
Jul 05, 2020 - 09:56 PM EDT / 2020.07.06 0156 UTC
Wind: Calm:0
Visibility: 10 mile(s):0
Sky conditions: clear
Temperature: 81.0 F (27.2 C)
Dew Point: 69.1 F (20.6 C)
Relative Humidity: 67%
Pressure (altimeter): 29.95 in. Hg (1014 hPa)
ob: KJRB 060156Z AUTO 00000KT 10SM CLR 27/21 A2995 RMK AO2 SLP142 T02720206
cycle: 2

Station Type Date Time Source
KJRB TAF UTC NOAA

Error!

Example: see airport list